sensor_id;sensor_type;location;lat;lon;timestamp;pressure;altitude;pressure_sealevel;temperature;humidity
22440;BME280;11387;51.612;7.210;2023-07-13T00:00:32;100576.16;;;17.03;73.87
22440;BME280;11387;51.612;7.210;2023-07-13T00:03:00;100582.78;;;16.90;73.24
22440;BME280;11387;51.612;7.210;2023-07-13T00:05:29;100588.88;;;16.83;73.49
22440;BME280;11387;51.612;7.210;2023-07-13T00:07:59;100582.44;;;16.79;73.37
22440;BME280;11387;51.612;7.210;2023-07-13T00:10:28;100586.75;;;16.68;73.61
22440;BME280;11387;51.612;7.210;2023-07-13T00:12:57;100592.81;;;16.62;73.13
22440;BME280;11387;51.612;7.210;2023-07-13T00:15:27;100590.94;;;16.54;73.43
22440;BME280;11387;51.612;7.210;2023-07-13T00:17:57;100597.94;;;16.51;73.62
22440;BME280;11387;51.612;7.210;2023-07-13T00:20:28;100592.50;;;16.42;73.61
22440;BME280;11387;51.612;7.210;2023-07-13T00:22:57;100587.19;;;16.37;73.87
22440;BME280;11387;51.612;7.210;2023-07-13T00:25:25;100587.53;;;16.36;74.11
22440;BME280;11387;51.612;7.210;2023-07-13T00:27:55;100592.97;;;16.24;74.31
22440;BME280;11387;51.612;7.210;2023-07-13T00:30:24;100592.72;;;16.16;74.63
22440;BME280;11387;51.612;7.210;2023-07-13T00:32:54;100585.94;;;16.14;74.39
22440;BME280;11387;51.612;7.210;2023-07-13T00:35:51;100586.41;;;16.16;74.35
22440;BME280;11387;51.612;7.210;2023-07-13T00:38:19;100592.31;;;16.06;74.47
22440;BME280;11387;51.612;7.210;2023-07-13T00:40:57;100588.00;;;15.96;75.04
22440;BME280;11387;51.612;7.210;2023-07-13T00:43:27;100584.63;;;15.91;75.36
22440;BME280;11387;51.612;7.210;2023-07-13T00:46:19;100585.97;;;15.85;75.46
22440;BME280;11387;51.612;7.210;2023-07-13T00:48:50;100584.88;;;15.77;76.00
22440;BME280;11387;51.612;7.210;2023-07-13T00:51:25;100586.38;;;15.74;76.13
22440;BME280;11387;51.612;7.210;2023-07-13T00:53:59;100590.25;;;15.73;76.37
22440;BME280;11387;51.612;7.210;2023-07-13T00:56:28;100580.09;;;15.65;76.67
22440;BME280;11387;51.612;7.210;2023-07-13T00:58:59;100584.97;;;15.60;76.66
22440;BME280;11387;51.612;7.210;2023-07-13T01:01:28;100584.66;;;15.61;76.78
22440;BME280;11387;51.612;7.210;2023-07-13T01:04:06;100591.00;;;15.53;76.57
22440;BME280;11387;51.612;7.210;2023-07-13T01:06:36;100593.28;;;15.51;75.86
22440;BME280;11387;51.612;7.210;2023-07-13T01:09:07;100583.88;;;15.52;75.34
22440;BME280;11387;51.612;7.210;2023-07-13T01:11:37;100571.56;;;15.49;74.58
22440;BME280;11387;51.612;7.210;2023-07-13T01:14:06;100586.16;;;15.50;73.97
22440;BME280;11387;51.612;7.210;2023-07-13T01:16:36;100577.88;;;15.50;72.95
22440;BME280;11387;51.612;7.210;2023-07-13T01:19:10;100577.25;;;15.44;72.65
22440;BME280;11387;51.612;7.210;2023-07-13T01:21:43;100579.69;;;15.46;72.35
22440;BME280;11387;51.612;7.210;2023-07-13T01:24:11;100585.69;;;15.48;71.99
22440;BME280;11387;51.612;7.210;2023-07-13T01:26:40;100584.19;;;15.59;71.39
22440;BME280;11387;51.612;7.210;2023-07-13T01:29:11;100582.59;;;15.58;70.90
22440;BME280;11387;51.612;7.210;2023-07-13T01:31:40;100583.22;;;15.55;71.12
22440;BME280;11387;51.612;7.210;2023-07-13T01:34:08;100574.31;;;15.49;71.11
22440;BME280;11387;51.612;7.210;2023-07-13T01:36:37;100577.41;;;15.48;71.27
22440;BME280;11387;51.612;7.210;2023-07-13T01:39:07;100576.25;;;15.58;70.75
22440;BME280;11387;51.612;7.210;2023-07-13T01:41:36;100589.09;;;15.45;71.27
22440;BME280;11387;51.612;7.210;2023-07-13T01:44:04;100578.72;;;15.42;71.73
22440;BME280;11387;51.612;7.210;2023-07-13T01:46:33;100586.03;;;15.38;71.83
22440;BME280;11387;51.612;7.210;2023-07-13T01:49:01;100593.69;;;15.32;72.27
22440;BME280;11387;51.612;7.210;2023-07-13T01:51:30;100594.22;;;15.26;72.57
22440;BME280;11387;51.612;7.210;2023-07-13T01:53:58;100592.28;;;15.26;73.06
22440;BME280;11387;51.612;7.210;2023-07-13T01:56:28;100584.69;;;15.14;73.45
22440;BME280;11387;51.612;7.210;2023-07-13T01:58:57;100600.25;;;15.10;73.97
22440;BME280;11387;51.612;7.210;2023-07-13T02:01:26;100605.63;;;15.07;73.88
22440;BME280;11387;51.612;7.210;2023-07-13T02:03:54;100613.06;;;15.06;74.23
22440;BME280;11387;51.612;7.210;2023-07-13T02:06:23;100606.28;;;15.04;74.07
22440;BME280;11387;51.612;7.210;2023-07-13T02:08:51;100605.84;;;14.93;74.66
22440;BME280;11387;51.612;7.210;2023-07-13T02:11:20;100600.00;;;14.86;75.32
22440;BME280;11387;51.612;7.210;2023-07-13T02:13:50;100608.28;;;14.86;75.25
22440;BME280;11387;51.612;7.210;2023-07-13T02:16:19;100596.09;;;14.96;74.68
22440;BME280;11387;51.612;7.210;2023-07-13T02:18:47;100606.00;;;14.88;75.06
22440;BME280;11387;51.612;7.210;2023-07-13T02:21:19;100604.22;;;14.92;74.71
22440;BME280;11387;51.612;7.210;2023-07-13T02:23:47;100604.88;;;14.89;74.99
22440;BME280;11387;51.612;7.210;2023-07-13T02:26:16;100597.59;;;14.85;75.42
22440;BME280;11387;51.612;7.210;2023-07-13T02:28:45;100594.03;;;14.84;75.04
22440;BME280;11387;51.612;7.210;2023-07-13T02:31:15;100605.84;;;14.85;74.80
22440;BME280;11387;51.612;7.210;2023-07-13T02:33:44;100599.84;;;14.82;75.00
22440;BME280;11387;51.612;7.210;2023-07-13T02:36:13;100598.88;;;14.78;75.06
22440;BME280;11387;51.612;7.210;2023-07-13T02:38:43;100600.72;;;14.66;75.79
22440;BME280;11387;51.612;7.210;2023-07-13T02:41:11;100599.56;;;14.67;75.67
22440;BME280;11387;51.612;7.210;2023-07-13T02:43:40;100595.50;;;14.73;75.31
22440;BME280;11387;51.612;7.210;2023-07-13T02:46:09;100595.19;;;14.66;75.65
22440;BME280;11387;51.612;7.210;2023-07-13T02:48:39;100596.34;;;14.65;75.70
22440;BME280;11387;51.612;7.210;2023-07-13T02:51:08;100594.88;;;14.59;76.26
22440;BME280;11387;51.612;7.210;2023-07-13T02:53:36;100602.81;;;14.60;75.92
22440;BME280;11387;51.612;7.210;2023-07-13T02:56:05;100600.88;;;14.61;75.96
22440;BME280;11387;51.612;7.210;2023-07-13T02:58:35;100595.53;;;14.56;76.15
22440;BME280;11387;51.612;7.210;2023-07-13T03:01:07;100602.66;;;14.57;76.30
22440;BME280;11387;51.612;7.210;2023-07-13T03:03:37;100597.00;;;14.44;76.75
22440;BME280;11387;51.612;7.210;2023-07-13T03:06:07;100609.13;;;14.43;77.27
22440;BME280;11387;51.612;7.210;2023-07-13T03:08:36;100609.47;;;14.51;77.22
22440;BME280;11387;51.612;7.210;2023-07-13T03:11:07;100613.84;;;14.43;77.56
22440;BME280;11387;51.612;7.210;2023-07-13T03:13:39;100615.13;;;14.45;77.38
22440;BME280;11387;51.612;7.210;2023-07-13T03:16:08;100619.50;;;14.46;77.53
22440;BME280;11387;51.612;7.210;2023-07-13T03:18:38;100617.72;;;14.42;77.73
22440;BME280;11387;51.612;7.210;2023-07-13T03:21:08;100623.56;;;14.49;77.75
22440;BME280;11387;51.612;7.210;2023-07-13T03:23:37;100618.22;;;14.61;77.11
22440;BME280;11387;51.612;7.210;2023-07-13T03:26:09;100608.81;;;14.54;77.29
22440;BME280;11387;51.612;7.210;2023-07-13T03:28:39;100611.41;;;14.59;76.94
22440;BME280;11387;51.612;7.210;2023-07-13T03:31:10;100614.00;;;14.55;77.56
22440;BME280;11387;51.612;7.210;2023-07-13T03:33:39;100622.09;;;14.52;77.58
22440;BME280;11387;51.612;7.210;2023-07-13T03:36:14;100629.38;;;14.56;77.46
22440;BME280;11387;51.612;7.210;2023-07-13T03:38:43;100627.28;;;14.53;77.46
22440;BME280;11387;51.612;7.210;2023-07-13T03:41:14;100618.38;;;14.65;77.13
22440;BME280;11387;51.612;7.210;2023-07-13T03:43:42;100624.19;;;14.63;77.39
22440;BME280;11387;51.612;7.210;2023-07-13T03:46:11;100620.31;;;14.64;77.37
22440;BME280;11387;51.612;7.210;2023-07-13T03:48:40;100631.16;;;14.61;78.05
22440;BME280;11387;51.612;7.210;2023-07-13T03:51:14;100638.13;;;14.58;78.23
22440;BME280;11387;51.612;7.210;2023-07-13T03:53:44;100636.19;;;14.59;78.38
22440;BME280;11387;51.612;7.210;2023-07-13T03:56:14;100635.69;;;14.57;78.63
22440;BME280;11387;51.612;7.210;2023-07-13T03:58:44;100647.16;;;14.76;77.76
22440;BME280;11387;51.612;7.210;2023-07-13T04:01:15;100645.72;;;14.87;77.48
22440;BME280;11387;51.612;7.210;2023-07-13T04:03:44;100646.97;;;14.98;76.82
22440;BME280;11387;51.612;7.210;2023-07-13T04:06:18;100648.72;;;15.11;76.47
22440;BME280;11387;51.612;7.210;2023-07-13T04:08:49;100652.44;;;15.15;75.92
22440;BME280;11387;51.612;7.210;2023-07-13T04:11:19;100660.22;;;15.13;76.01
22440;BME280;11387;51.612;7.210;2023-07-13T04:13:49;100664.28;;;15.16;75.91
22440;BME280;11387;51.612;7.210;2023-07-13T04:16:18;100657.78;;;15.21;75.52
22440;BME280;11387;51.612;7.210;2023-07-13T04:18:48;100667.03;;;15.25;75.64
22440;BME280;11387;51.612;7.210;2023-07-13T04:21:18;100662.97;;;15.22;75.78
22440;BME280;11387;51.612;7.210;2023-07-13T04:23:47;100654.00;;;15.34;75.10
22440;BME280;11387;51.612;7.210;2023-07-13T04:26:15;100661.25;;;15.47;74.67
22440;BME280;11387;51.612;7.210;2023-07-13T04:28:44;100654.72;;;15.60;74.44
22440;BME280;11387;51.612;7.210;2023-07-13T04:31:12;100660.72;;;15.62;74.43
22440;BME280;11387;51.612;7.210;2023-07-13T04:33:41;100663.00;;;15.60;74.29
22440;BME280;11387;51.612;7.210;2023-07-13T04:36:12;100660.06;;;15.65;74.15
22440;BME280;11387;51.612;7.210;2023-07-13T04:38:43;100663.44;;;15.71;74.31
22440;BME280;11387;51.612;7.210;2023-07-13T04:41:13;100657.91;;;15.79;74.00
22440;BME280;11387;51.612;7.210;2023-07-13T04:43:42;100662.13;;;15.77;74.12
22440;BME280;11387;51.612;7.210;2023-07-13T04:46:12;100662.41;;;15.84;73.93
22440;BME280;11387;51.612;7.210;2023-07-13T04:48:50;100662.56;;;15.88;74.28
22440;BME280;11387;51.612;7.210;2023-07-13T04:51:24;100667.69;;;15.98;73.75
22440;BME280;11387;51.612;7.210;2023-07-13T04:53:57;100669.06;;;16.12;73.26
22440;BME280;11387;51.612;7.210;2023-07-13T04:56:28;100671.09;;;16.24;72.94
22440;BME280;11387;51.612;7.210;2023-07-13T04:58:57;100674.13;;;16.31;72.86
22440;BME280;11387;51.612;7.210;2023-07-13T05:01:26;100674.00;;;16.48;72.12
22440;BME280;11387;51.612;7.210;2023-07-13T05:03:55;100678.13;;;16.42;72.35
22440;BME280;11387;51.612;7.210;2023-07-13T05:06:37;100678.13;;;16.42;72.40
22440;BME280;11387;51.612;7.210;2023-07-13T05:09:08;100678.13;;;16.42;72.47
22440;BME280;11387;51.612;7.210;2023-07-13T05:11:36;100690.78;;;16.43;72.65
22440;BME280;11387;51.612;7.210;2023-07-13T05:14:05;100693.72;;;16.38;73.17
22440;BME280;11387;51.612;7.210;2023-07-13T05:16:33;100690.50;;;16.36;73.19
22440;BME280;11387;51.612;7.210;2023-07-13T05:19:02;100689.97;;;16.43;73.29
22440;BME280;11387;51.612;7.210;2023-07-13T05:21:31;100687.06;;;16.60;72.39
22440;BME280;11387;51.612;7.210;2023-07-13T05:23:59;100697.75;;;16.70;72.10
22440;BME280;11387;51.612;7.210;2023-07-13T05:26:47;100698.75;;;16.66;72.01
22440;BME280;11387;51.612;7.210;2023-07-13T05:29:15;100693.69;;;16.68;72.45
22440;BME280;11387;51.612;7.210;2023-07-13T05:31:44;100700.63;;;16.74;72.32
22440;BME280;11387;51.612;7.210;2023-07-13T05:34:13;100696.72;;;16.75;72.57
22440;BME280;11387;51.612;7.210;2023-07-13T05:36:41;100696.72;;;16.75;72.41
22440;BME280;11387;51.612;7.210;2023-07-13T05:39:10;100701.44;;;16.74;72.54
22440;BME280;11387;51.612;7.210;2023-07-13T05:41:39;100704.88;;;16.71;72.71
22440;BME280;11387;51.612;7.210;2023-07-13T05:44:09;100704.13;;;16.83;72.56
22440;BME280;11387;51.612;7.210;2023-07-13T05:46:37;100707.53;;;17.01;71.91
22440;BME280;11387;51.612;7.210;2023-07-13T05:49:06;100710.19;;;16.97;72.05
22440;BME280;11387;51.612;7.210;2023-07-13T05:51:35;100702.75;;;17.10;71.78
22440;BME280;11387;51.612;7.210;2023-07-13T05:54:03;100709.56;;;17.25;71.71
22440;BME280;11387;51.612;7.210;2023-07-13T05:56:32;100714.94;;;17.42;70.66
22440;BME280;11387;51.612;7.210;2023-07-13T05:59:00;100715.88;;;17.58;70.11
22440;BME280;11387;51.612;7.210;2023-07-13T06:01:30;100714.53;;;17.76;70.14
22440;BME280;11387;51.612;7.210;2023-07-13T06:03:59;100712.00;;;17.83;69.48
22440;BME280;11387;51.612;7.210;2023-07-13T06:06:28;100723.78;;;17.93;69.48
22440;BME280;11387;51.612;7.210;2023-07-13T06:08:56;100728.50;;;18.04;68.82
22440;BME280;11387;51.612;7.210;2023-07-13T06:11:27;100729.31;;;18.05;68.83
22440;BME280;11387;51.612;7.210;2023-07-13T06:13:57;100730.81;;;18.14;68.32
22440;BME280;11387;51.612;7.210;2023-07-13T06:16:25;100737.28;;;18.18;68.54
22440;BME280;11387;51.612;7.210;2023-07-13T06:18:55;100732.28;;;18.48;68.03
22440;BME280;11387;51.612;7.210;2023-07-13T06:21:24;100741.97;;;18.67;66.76
22440;BME280;11387;51.612;7.210;2023-07-13T06:23:53;100747.75;;;18.62;66.52
22440;BME280;11387;51.612;7.210;2023-07-13T06:26:21;100744.28;;;18.65;66.61
22440;BME280;11387;51.612;7.210;2023-07-13T06:29:04;100742.88;;;18.59;66.81
22440;BME280;11387;51.612;7.210;2023-07-13T06:31:33;100743.53;;;18.80;66.46
22440;BME280;11387;51.612;7.210;2023-07-13T06:34:03;100747.34;;;18.88;65.99
22440;BME280;11387;51.612;7.210;2023-07-13T06:36:32;100746.22;;;19.04;65.55
22440;BME280;11387;51.612;7.210;2023-07-13T06:39:00;100755.53;;;19.24;65.43
22440;BME280;11387;51.612;7.210;2023-07-13T06:41:29;100758.22;;;18.80;66.02
22440;BME280;11387;51.612;7.210;2023-07-13T06:44:26;100754.63;;;19.20;65.10
22440;BME280;11387;51.612;7.210;2023-07-13T06:46:55;100760.13;;;19.48;64.49
22440;BME280;11387;51.612;7.210;2023-07-13T06:49:25;100762.53;;;19.77;63.48
22440;BME280;11387;51.612;7.210;2023-07-13T06:51:54;100761.53;;;19.70;62.91
22440;BME280;11387;51.612;7.210;2023-07-13T06:54:22;100763.97;;;19.71;62.76
22440;BME280;11387;51.612;7.210;2023-07-13T06:56:51;100764.53;;;19.49;63.39
22440;BME280;11387;51.612;7.210;2023-07-13T06:59:19;100768.25;;;19.53;63.83
22440;BME280;11387;51.612;7.210;2023-07-13T07:01:48;100764.47;;;19.61;63.83
22440;BME280;11387;51.612;7.210;2023-07-13T07:04:29;100763.16;;;19.43;64.31
22440;BME280;11387;51.612;7.210;2023-07-13T07:06:58;100760.41;;;19.15;64.92
22440;BME280;11387;51.612;7.210;2023-07-13T07:09:26;100765.50;;;19.13;65.91
22440;BME280;11387;51.612;7.210;2023-07-13T07:11:57;100757.63;;;19.43;64.55
22440;BME280;11387;51.612;7.210;2023-07-13T07:14:31;100769.03;;;19.54;64.92
22440;BME280;11387;51.612;7.210;2023-07-13T07:17:01;100765.84;;;19.83;63.52
22440;BME280;11387;51.612;7.210;2023-07-13T07:19:32;100771.31;;;20.11;63.14
22440;BME280;11387;51.612;7.210;2023-07-13T07:22:02;100774.88;;;20.27;62.57
22440;BME280;11387;51.612;7.210;2023-07-13T07:24:30;100773.81;;;20.47;61.88
22440;BME280;11387;51.612;7.210;2023-07-13T07:26:59;100772.13;;;20.43;61.16
22440;BME280;11387;51.612;7.210;2023-07-13T07:29:30;100766.94;;;20.61;61.51
22440;BME280;11387;51.612;7.210;2023-07-13T07:32:04;100770.50;;;20.96;59.88
22440;BME280;11387;51.612;7.210;2023-07-13T07:34:55;100767.28;;;21.13;59.59
22440;BME280;11387;51.612;7.210;2023-07-13T07:37:23;100756.66;;;21.19;58.48
22440;BME280;11387;51.612;7.210;2023-07-13T07:40:13;100765.06;;;21.84;58.22
22440;BME280;11387;51.612;7.210;2023-07-13T07:42:45;100775.50;;;22.10;56.52
22440;BME280;11387;51.612;7.210;2023-07-13T07:45:13;100768.69;;;22.07;56.40
22440;BME280;11387;51.612;7.210;2023-07-13T07:47:42;100766.38;;;21.90;57.31
22440;BME280;11387;51.612;7.210;2023-07-13T07:50:13;100770.34;;;21.89;56.20
22440;BME280;11387;51.612;7.210;2023-07-13T07:52:42;100775.16;;;21.08;58.44
22440;BME280;11387;51.612;7.210;2023-07-13T07:55:16;100764.38;;;21.06;58.70
22440;BME280;11387;51.612;7.210;2023-07-13T07:57:47;100765.16;;;20.88;60.19
22440;BME280;11387;51.612;7.210;2023-07-13T08:00:22;100772.31;;;21.66;58.17
22440;BME280;11387;51.612;7.210;2023-07-13T08:02:53;100768.63;;;22.04;56.01
22440;BME280;11387;51.612;7.210;2023-07-13T08:05:26;100779.81;;;22.30;55.45
22440;BME280;11387;51.612;7.210;2023-07-13T08:07:58;100765.84;;;22.04;55.26
22440;BME280;11387;51.612;7.210;2023-07-13T08:10:27;100778.41;;;21.52;57.22
22440;BME280;11387;51.612;7.210;2023-07-13T08:12:55;100785.31;;;21.81;56.84
22440;BME280;11387;51.612;7.210;2023-07-13T08:15:27;100779.25;;;21.33;56.99
22440;BME280;11387;51.612;7.210;2023-07-13T08:17:56;100781.56;;;21.93;56.09
22440;BME280;11387;51.612;7.210;2023-07-13T08:20:24;100783.16;;;22.16;54.71
22440;BME280;11387;51.612;7.210;2023-07-13T08:22:54;100778.31;;;22.89;53.21
22440;BME280;11387;51.612;7.210;2023-07-13T08:25:23;100771.63;;;23.31;51.44
22440;BME280;11387;51.612;7.210;2023-07-13T08:27:52;100775.63;;;23.30;51.96
22440;BME280;11387;51.612;7.210;2023-07-13T08:30:20;100776.13;;;23.72;50.35
22440;BME280;11387;51.612;7.210;2023-07-13T08:32:49;100766.25;;;24.30;48.83
22440;BME280;11387;51.612;7.210;2023-07-13T08:35:17;100763.97;;;24.49;48.15
22440;BME280;11387;51.612;7.210;2023-07-13T08:37:46;100775.63;;;25.35;46.15
22440;BME280;11387;51.612;7.210;2023-07-13T08:40:17;100764.97;;;26.26;44.52
22440;BME280;11387;51.612;7.210;2023-07-13T08:42:54;100768.44;;;26.97;42.03
22440;BME280;11387;51.612;7.210;2023-07-13T08:45:25;100775.38;;;27.62;41.49
22440;BME280;11387;51.612;7.210;2023-07-13T08:48:02;100772.13;;;28.23;40.18
22440;BME280;11387;51.612;7.210;2023-07-13T08:50:34;100765.41;;;27.47;40.22
22440;BME280;11387;51.612;7.210;2023-07-13T08:53:21;100773.84;;;27.43;40.00
22440;BME280;11387;51.612;7.210;2023-07-13T08:55:58;100769.13;;;27.23;39.24
22440;BME280;11387;51.612;7.210;2023-07-13T08:58:53;100779.66;;;27.04;38.99
22440;BME280;11387;51.612;7.210;2023-07-13T09:01:30;100773.94;;;27.26;39.44
22440;BME280;11387;51.612;7.210;2023-07-13T09:04:05;100776.56;;;26.45;40.58
22440;BME280;11387;51.612;7.210;2023-07-13T09:06:42;100771.63;;;25.39;42.35
22440;BME280;11387;51.612;7.210;2023-07-13T09:09:22;100767.75;;;26.50;41.84
22440;BME280;11387;51.612;7.210;2023-07-13T09:12:00;100771.09;;;27.29;39.61
22440;BME280;11387;51.612;7.210;2023-07-13T09:14:41;100773.16;;;28.43;37.76
22440;BME280;11387;51.612;7.210;2023-07-13T09:17:14;100771.56;;;30.25;34.76
22440;BME280;11387;51.612;7.210;2023-07-13T09:19:47;100774.50;;;30.84;32.04
22440;BME280;11387;51.612;7.210;2023-07-13T09:22:20;100772.31;;;31.11;32.43
22440;BME280;11387;51.612;7.210;2023-07-13T09:25:00;100767.44;;;28.50;35.65
22440;BME280;11387;51.612;7.210;2023-07-13T09:27:36;100769.59;;;30.22;33.87
22440;BME280;11387;51.612;7.210;2023-07-13T09:30:24;100781.06;;;30.34;33.37
22440;BME280;11387;51.612;7.210;2023-07-13T09:32:56;100782.72;;;31.18;32.40
22440;BME280;11387;51.612;7.210;2023-07-13T09:35:27;100777.50;;;31.89;31.03
22440;BME280;11387;51.612;7.210;2023-07-13T09:37:58;100778.72;;;32.20;30.62
22440;BME280;11387;51.612;7.210;2023-07-13T09:40:36;100781.94;;;31.18;33.02
22440;BME280;11387;51.612;7.210;2023-07-13T09:43:13;100782.06;;;29.70;34.01
22440;BME280;11387;51.612;7.210;2023-07-13T09:45:45;100772.88;;;29.36;34.86
22440;BME280;11387;51.612;7.210;2023-07-13T09:48:16;100778.88;;;28.32;37.20
22440;BME280;11387;51.612;7.210;2023-07-13T09:50:45;100786.44;;;27.17;38.78
22440;BME280;11387;51.612;7.210;2023-07-13T09:53:15;100785.34;;;26.69;40.30
22440;BME280;11387;51.612;7.210;2023-07-13T09:55:46;100784.91;;;26.88;41.03
22440;BME280;11387;51.612;7.210;2023-07-13T09:58:26;100785.38;;;26.40;41.50
22440;BME280;11387;51.612;7.210;2023-07-13T10:01:00;100781.78;;;27.56;38.98
22440;BME280;11387;51.612;7.210;2023-07-13T10:03:34;100794.88;;;27.83;39.34
22440;BME280;11387;51.612;7.210;2023-07-13T10:06:13;100795.59;;;28.46;37.35
22440;BME280;11387;51.612;7.210;2023-07-13T10:08:44;100796.38;;;27.36;39.20
22440;BME280;11387;51.612;7.210;2023-07-13T10:11:19;100787.00;;;28.16;38.29
22440;BME280;11387;51.612;7.210;2023-07-13T10:13:53;100778.72;;;29.79;34.92
22440;BME280;11387;51.612;7.210;2023-07-13T10:16:25;100778.97;;;30.15;34.43
22440;BME280;11387;51.612;7.210;2023-07-13T10:18:57;100781.28;;;29.09;35.62
22440;BME280;11387;51.612;7.210;2023-07-13T10:21:32;100793.75;;;27.77;37.41
22440;BME280;11387;51.612;7.210;2023-07-13T10:24:11;100795.00;;;26.11;41.16
22440;BME280;11387;51.612;7.210;2023-07-13T10:26:46;100798.22;;;24.94;43.99
22440;BME280;11387;51.612;7.210;2023-07-13T10:29:19;100805.84;;;23.95;46.25
22440;BME280;11387;51.612;7.210;2023-07-13T10:31:48;100805.25;;;22.78;51.41
22440;BME280;11387;51.612;7.210;2023-07-13T10:34:17;100811.03;;;21.94;55.52
22440;BME280;11387;51.612;7.210;2023-07-13T10:36:47;100810.59;;;21.72;58.35
22440;BME280;11387;51.612;7.210;2023-07-13T10:39:20;100802.53;;;21.25;59.66
22440;BME280;11387;51.612;7.210;2023-07-13T10:41:53;100806.00;;;21.38;59.37
22440;BME280;11387;51.612;7.210;2023-07-13T10:44:27;100801.16;;;21.77;58.43
22440;BME280;11387;51.612;7.210;2023-07-13T10:46:59;100812.72;;;23.64;54.65
22440;BME280;11387;51.612;7.210;2023-07-13T10:49:30;100808.00;;;27.38;43.54
22440;BME280;11387;51.612;7.210;2023-07-13T10:52:00;100806.44;;;30.81;36.60
22440;BME280;11387;51.612;7.210;2023-07-13T10:54:31;100809.44;;;32.54;31.81
22440;BME280;11387;51.612;7.210;2023-07-13T10:57:16;100809.50;;;32.67;30.56
22440;BME280;11387;51.612;7.210;2023-07-13T10:59:48;100796.44;;;29.79;33.82
22440;BME280;11387;51.612;7.210;2023-07-13T11:02:24;100794.09;;;29.74;34.70
22440;BME280;11387;51.612;7.210;2023-07-13T11:04:56;100804.25;;;30.69;32.17
22440;BME280;11387;51.612;7.210;2023-07-13T11:07:29;100805.22;;;30.12;33.18
22440;BME280;11387;51.612;7.210;2023-07-13T11:10:03;100798.72;;;31.25;32.07
22440;BME280;11387;51.612;7.210;2023-07-13T11:12:51;100801.63;;;31.93;30.37
22440;BME280;11387;51.612;7.210;2023-07-13T11:15:31;100796.09;;;31.34;30.28
22440;BME280;11387;51.612;7.210;2023-07-13T11:18:04;100807.75;;;33.56;28.02
22440;BME280;11387;51.612;7.210;2023-07-13T11:20:38;100800.97;;;34.17;27.44
22440;BME280;11387;51.612;7.210;2023-07-13T11:23:17;100794.97;;;35.28;26.55
22440;BME280;11387;51.612;7.210;2023-07-13T11:25:47;100802.75;;;34.71;26.20
22440;BME280;11387;51.612;7.210;2023-07-13T11:28:20;100787.91;;;33.56;27.89
22440;BME280;11387;51.612;7.210;2023-07-13T11:31:13;100788.53;;;33.35;27.65
22440;BME280;11387;51.612;7.210;2023-07-13T11:33:56;100784.38;;;32.53;27.89
22440;BME280;11387;51.612;7.210;2023-07-13T11:36:32;100792.41;;;33.41;28.07
22440;BME280;11387;51.612;7.210;2023-07-13T11:39:19;100788.66;;;34.33;25.99
22440;BME280;11387;51.612;7.210;2023-07-13T11:41:52;100790.59;;;33.05;27.04
22440;BME280;11387;51.612;7.210;2023-07-13T11:44:23;100779.81;;;30.35;31.38
22440;BME280;11387;51.612;7.210;2023-07-13T11:46:56;100784.81;;;27.90;35.08
22440;BME280;11387;51.612;7.210;2023-07-13T11:49:30;100787.78;;;26.45;38.29
22440;BME280;11387;51.612;7.210;2023-07-13T11:52:00;100783.78;;;25.90;39.76
22440;BME280;11387;51.612;7.210;2023-07-13T11:54:34;100786.88;;;26.95;38.88
22440;BME280;11387;51.612;7.210;2023-07-13T11:57:10;100775.19;;;30.25;32.15
22440;BME280;11387;51.612;7.210;2023-07-13T11:59:45;100772.66;;;32.38;28.83
22440;BME280;11387;51.612;7.210;2023-07-13T12:02:17;100767.75;;;31.90;28.30
22440;BME280;11387;51.612;7.210;2023-07-13T12:04:52;100797.19;;;31.00;29.71
22440;BME280;11387;51.612;7.210;2023-07-13T12:07:22;100769.56;;;30.45;30.25
22440;BME280;11387;51.612;7.210;2023-07-13T12:09:51;100758.59;;;30.27;30.83
22440;BME280;11387;51.612;7.210;2023-07-13T12:12:22;100775.38;;;28.59;33.07
22440;BME280;11387;51.612;7.210;2023-07-13T12:14:51;100761.97;;;30.85;31.05
22440;BME280;11387;51.612;7.210;2023-07-13T12:17:24;100769.00;;;30.77;30.29
22440;BME280;11387;51.612;7.210;2023-07-13T12:19:54;100770.84;;;29.94;30.80
22440;BME280;11387;51.612;7.210;2023-07-13T12:22:22;100760.00;;;28.70;32.36
22440;BME280;11387;51.612;7.210;2023-07-13T12:24:52;100766.22;;;28.51;33.38
22440;BME280;11387;51.612;7.210;2023-07-13T12:27:24;100768.91;;;28.17;33.54
22440;BME280;11387;51.612;7.210;2023-07-13T12:30:01;100763.84;;;30.92;29.70
22440;BME280;11387;51.612;7.210;2023-07-13T12:32:31;100760.06;;;28.63;31.77
22440;BME280;11387;51.612;7.210;2023-07-13T12:35:07;100762.63;;;28.88;31.86
22440;BME280;11387;51.612;7.210;2023-07-13T12:37:41;100763.50;;;29.46;31.37
22440;BME280;11387;51.612;7.210;2023-07-13T12:42:42;100760.59;;;32.34;27.19
22440;BME280;11387;51.612;7.210;2023-07-13T12:45:17;100755.38;;;32.00;27.47
22440;BME280;11387;51.612;7.210;2023-07-13T12:47:49;100758.25;;;32.90;27.00
22440;BME280;11387;51.612;7.210;2023-07-13T12:50:22;100754.44;;;32.52;26.89
22440;BME280;11387;51.612;7.210;2023-07-13T12:52:51;100755.38;;;31.84;27.21
22440;BME280;11387;51.612;7.210;2023-07-13T12:55:21;100753.66;;;29.58;29.97
22440;BME280;11387;51.612;7.210;2023-07-13T12:57:54;100752.94;;;28.52;31.65
22440;BME280;11387;51.612;7.210;2023-07-13T13:00:25;100758.09;;;27.57;33.68
22440;BME280;11387;51.612;7.210;2023-07-13T13:02:58;100763.88;;;27.94;33.38
22440;BME280;11387;51.612;7.210;2023-07-13T13:05:48;100758.97;;;29.52;30.63
22440;BME280;11387;51.612;7.210;2023-07-13T13:08:17;100760.78;;;29.93;29.89
22440;BME280;11387;51.612;7.210;2023-07-13T13:10:45;100769.78;;;29.27;31.11
22440;BME280;11387;51.612;7.210;2023-07-13T13:13:14;100830.19;;;28.47;32.39
22440;BME280;11387;51.612;7.210;2023-07-13T13:15:42;100857.84;;;25.81;40.74